createdAt,value
2018-01-08T00:02:28.748Z,98.89
2018-01-08T00:04:56.268Z,98.93
2018-01-08T00:07:23.850Z,98.98
2018-01-08T00:09:51.366Z,99.01
2018-01-08T00:12:18.872Z,99.01
2018-01-08T00:14:46.382Z,98.99
2018-01-08T00:17:13.921Z,98.93
2018-01-08T00:19:41.489Z,99.18
2018-01-08T00:22:09.026Z,99.24
2018-01-08T00:24:36.510Z,99.23
2018-01-08T00:27:04.012Z,99.32
2018-01-08T00:29:31.515Z,99.38
2018-01-08T00:31:59.032Z,99.40
2018-01-08T00:34:26.520Z,99.38
2018-01-08T00:36:54.048Z,99.32
2018-01-08T00:39:21.567Z,99.39
2018-01-08T00:41:49.079Z,99.32
2018-01-08T00:44:16.579Z,99.26
2018-01-08T00:46:44.088Z,99.02
2018-01-08T00:49:11.580Z,99.01
2018-01-08T00:51:39.072Z,98.99
2018-01-08T00:54:06.581Z,98.96
2018-01-08T00:56:34.091Z,99.02
2018-01-08T00:59:01.584Z,98.97
2018-01-08T01:01:29.082Z,99.11
2018-01-08T01:03:56.585Z,99.25
2018-01-08T01:06:24.068Z,98.98
2018-01-08T01:08:58.418Z,98.90
2018-01-08T01:11:25.910Z,98.93
2018-01-08T01:13:53.417Z,98.89
2018-01-08T01:16:20.934Z,98.95
2018-01-08T01:18:48.422Z,98.91
2018-01-08T01:21:15.912Z,99.02
2018-01-08T01:23:43.404Z,99.04
2018-01-08T01:26:10.907Z,99.01
2018-01-08T01:28:38.447Z,98.93
2018-01-08T01:31:05.941Z,98.96
2018-01-08T01:33:33.446Z,98.95
2018-01-08T01:36:00.975Z,98.76
2018-01-08T01:38:28.480Z,98.82
2018-01-08T01:40:55.971Z,98.74
2018-01-08T01:43:23.911Z,98.65
2018-01-08T01:45:52.256Z,98.63
2018-01-08T01:48:19.749Z,98.71
2018-01-08T01:50:47.244Z,98.70
2018-01-08T01:53:14.728Z,98.79
2018-01-08T01:55:42.268Z,98.78
2018-01-08T01:58:09.744Z,98.77
2018-01-08T02:00:37.265Z,98.75
2018-01-08T02:03:04.760Z,98.64
2018-01-08T02:05:32.239Z,98.68
2018-01-08T02:07:59.744Z,98.69
2018-01-08T02:10:27.242Z,98.68
2018-01-08T02:12:54.761Z,98.58
2018-01-08T02:15:22.256Z,98.40
2018-01-08T02:17:49.783Z,98.62
2018-01-08T02:20:17.286Z,98.64
2018-01-08T02:22:44.796Z,98.68
2018-01-08T02:25:12.319Z,98.69
2018-01-08T02:27:39.874Z,98.62
2018-01-08T02:30:07.392Z,98.77
2018-01-08T02:32:34.916Z,98.59
2018-01-08T02:35:02.417Z,98.68
2018-01-08T02:37:29.934Z,98.62
2018-01-08T02:39:57.664Z,98.59
2018-01-08T02:42:25.185Z,98.65
2018-01-08T02:44:52.707Z,98.72
2018-01-08T02:47:20.205Z,98.81
2018-01-08T02:49:47.710Z,98.66
2018-01-08T02:52:15.226Z,98.53
2018-01-08T02:54:42.711Z,98.73
2018-01-08T02:57:10.211Z,98.67
2018-01-08T02:59:37.732Z,98.68
2018-01-08T03:02:05.219Z,98.38
2018-01-08T03:04:32.733Z,98.49
2018-01-08T03:07:00.454Z,98.55
2018-01-08T03:09:27.955Z,98.64
2018-01-08T03:11:55.455Z,98.73
2018-01-08T03:14:22.957Z,98.76
2018-01-08T03:16:50.460Z,98.83
2018-01-08T03:19:17.956Z,98.92
2018-01-08T03:21:45.447Z,99.01
2018-01-08T03:24:12.940Z,99.01
2018-01-08T03:26:40.461Z,98.89
2018-01-08T03:29:07.952Z,98.85
2018-01-08T03:31:35.497Z,98.94
2018-01-08T03:34:03.940Z,98.83
2018-01-08T03:36:31.437Z,98.88
2018-01-08T03:38:58.942Z,98.75
2018-01-08T03:41:26.438Z,98.81
2018-01-08T03:43:53.987Z,98.98
2018-01-08T03:46:21.519Z,99.12
2018-01-08T03:48:49.017Z,99.21
2018-01-08T03:51:16.496Z,99.25
2018-01-08T03:53:44.019Z,99.33
2018-01-08T03:56:11.512Z,99.21
2018-01-08T03:58:39.022Z,99.11
2018-01-08T04:01:06.521Z,99.18
2018-01-08T04:03:34.030Z,99.02
2018-01-08T04:06:01.741Z,99.15
2018-01-08T04:08:29.262Z,99.20
2018-01-08T04:10:56.783Z,99.30
2018-01-08T04:13:24.306Z,99.30
2018-01-08T04:15:51.795Z,99.33
2018-01-08T04:18:19.319Z,99.34
2018-01-08T04:20:46.851Z,99.16
2018-01-08T04:23:14.363Z,99.22
2018-01-08T04:25:41.890Z,99.40
2018-01-08T04:28:09.424Z,99.40
2018-01-08T04:30:36.963Z,99.39
2018-01-08T04:33:04.524Z,99.43
2018-01-08T04:35:32.053Z,99.47
2018-01-08T04:37:59.570Z,99.45
2018-01-08T04:40:27.083Z,99.16
2018-01-08T04:42:54.600Z,99.57
2018-01-08T04:45:22.142Z,99.62
2018-01-08T04:47:49.636Z,99.65
2018-01-08T04:50:17.159Z,99.71
2018-01-08T04:52:44.664Z,99.83
2018-01-08T04:55:12.177Z,99.83
2018-01-08T04:57:39.662Z,99.75
2018-01-08T05:00:07.184Z,99.57
2018-01-08T05:02:34.703Z,99.63
2018-01-08T05:05:02.261Z,99.62
2018-01-08T05:07:29.787Z,99.73
2018-01-08T05:09:57.318Z,99.65
2018-01-08T05:12:24.813Z,99.84
2018-01-08T05:14:52.339Z,99.79
2018-01-08T05:17:19.860Z,99.86
2018-01-08T05:19:47.376Z,99.88
2018-01-08T05:22:14.891Z,99.68
2018-01-08T05:24:42.402Z,99.57
2018-01-08T05:27:09.904Z,99.97
2018-01-08T05:29:37.410Z,100.00
2018-01-08T05:32:05.875Z,100.00
2018-01-08T05:34:33.364Z,100.00
2018-01-08T05:37:00.868Z,100.00
2018-01-08T05:39:28.379Z,100.00
2018-01-08T05:41:55.876Z,100.00
2018-01-08T05:44:23.409Z,100.00
2018-01-08T05:46:50.933Z,100.00
2018-01-08T05:49:18.461Z,100.00
2018-01-08T05:51:45.969Z,100.00
2018-01-08T05:54:13.481Z,100.00
2018-01-08T05:56:40.999Z,100.00
2018-01-08T05:59:08.496Z,100.00
2018-01-08T06:01:36.013Z,100.00
2018-01-08T06:04:03.530Z,100.00
2018-01-08T06:06:31.052Z,100.00
2018-01-08T06:08:58.584Z,100.00
2018-01-08T06:11:26.107Z,100.00
2018-01-08T06:13:53.671Z,100.00
2018-01-08T06:16:21.182Z,100.00
2018-01-08T06:18:48.716Z,100.00
2018-01-08T06:21:16.216Z,100.00
2018-01-08T06:23:43.711Z,100.00
2018-01-08T06:26:11.227Z,99.98
2018-01-08T06:28:38.743Z,100.00
2018-01-08T06:31:06.265Z,99.76
2018-01-08T06:33:33.819Z,99.98
2018-01-08T06:36:01.345Z,100.00
2018-01-08T06:38:28.851Z,100.00
2018-01-08T06:40:56.391Z,100.00
2018-01-08T06:43:24.094Z,100.00
2018-01-08T06:45:51.604Z,100.00
2018-01-08T06:48:19.111Z,100.00
2018-01-08T06:50:46.628Z,100.00
2018-01-08T06:53:14.195Z,100.00
2018-01-08T06:55:41.718Z,100.00
2018-01-08T06:58:10.079Z,99.99
2018-01-08T07:00:37.597Z,99.93
2018-01-08T07:03:05.252Z,99.96
2018-01-08T07:05:32.778Z,99.84
2018-01-08T07:08:00.299Z,99.85
2018-01-08T07:10:27.811Z,99.89
2018-01-08T07:12:55.825Z,99.87
2018-01-08T07:15:23.343Z,99.83
2018-01-08T07:17:50.887Z,99.76
2018-01-08T07:20:18.403Z,99.70
2018-01-08T07:22:45.916Z,99.70
2018-01-08T07:25:13.431Z,99.65
2018-01-08T07:27:40.951Z,99.62
2018-01-08T07:30:08.488Z,99.68
2018-01-08T07:32:36.019Z,99.51
2018-01-08T07:35:03.531Z,99.60
2018-01-08T07:37:31.067Z,99.44
2018-01-08T07:39:58.577Z,99.51
2018-01-08T07:42:26.100Z,99.40
2018-01-08T07:44:53.613Z,99.27
2018-01-08T07:47:21.122Z,99.32
2018-01-08T07:49:48.660Z,99.07
2018-01-08T07:52:16.171Z,99.00
2018-01-08T07:54:43.698Z,98.80
2018-01-08T07:57:11.223Z,98.72
2018-01-08T07:59:38.744Z,98.68
2018-01-08T08:02:06.283Z,98.40
2018-01-08T08:04:33.796Z,98.26
2018-01-08T08:07:01.294Z,97.32
2018-01-08T08:09:28.826Z,96.95
2018-01-08T08:11:56.308Z,96.63
2018-01-08T08:14:23.844Z,95.79
2018-01-08T08:16:51.851Z,95.59
2018-01-08T08:19:19.343Z,94.70
2018-01-08T08:21:46.871Z,93.88
2018-01-08T08:24:14.365Z,92.63
2018-01-08T08:26:41.883Z,91.59
2018-01-08T08:29:09.386Z,90.70
2018-01-08T08:31:36.925Z,89.65
2018-01-08T08:34:04.430Z,89.72
2018-01-08T08:36:31.936Z,89.54
2018-01-08T08:38:59.443Z,89.09
2018-01-08T08:41:26.961Z,88.71
2018-01-08T08:43:54.464Z,88.65
2018-01-08T08:46:21.941Z,87.69
2018-01-08T08:48:49.426Z,86.17
2018-01-08T08:51:16.931Z,87.72
2018-01-08T08:53:44.454Z,88.85
2018-01-08T08:56:11.963Z,89.25
2018-01-08T08:58:39.444Z,88.54
2018-01-08T09:01:06.933Z,87.46
2018-01-08T09:03:34.417Z,84.11
2018-01-08T09:06:01.916Z,82.47
2018-01-08T09:08:29.423Z,81.70
2018-01-08T09:10:56.948Z,81.10
2018-01-08T09:13:24.482Z,81.74
2018-01-08T09:15:52.896Z,81.28
2018-01-08T09:18:20.404Z,76.71
2018-01-08T09:20:47.930Z,71.95
2018-01-08T09:23:15.412Z,71.42
2018-01-08T09:25:42.935Z,72.33
2018-01-08T09:28:10.415Z,73.66
2018-01-08T09:30:37.905Z,72.33
2018-01-08T09:33:05.401Z,70.67
2018-01-08T09:35:32.925Z,73.48
2018-01-08T09:38:00.427Z,71.78
2018-01-08T09:40:27.918Z,73.01
2018-01-08T09:42:55.424Z,71.62
2018-01-08T09:45:23.504Z,74.09
2018-01-08T09:47:51.005Z,73.96
2018-01-08T09:50:18.480Z,73.72
2018-01-08T09:52:45.969Z,75.34
2018-01-08T09:55:13.483Z,74.38
2018-01-08T09:57:41.002Z,71.74
2018-01-08T10:00:09.108Z,69.43
2018-01-08T10:02:48.264Z,68.59
2018-01-08T10:05:27.629Z,68.27
2018-01-08T10:08:06.773Z,68.79
2018-01-08T10:10:49.752Z,69.34
2018-01-08T10:13:29.104Z,69.50
2018-01-08T10:16:08.380Z,70.56
2018-01-08T10:18:35.324Z,70.17
2018-01-08T10:21:02.835Z,69.93
2018-01-08T10:23:30.332Z,70.15
2018-01-08T10:25:57.836Z,70.26
2018-01-08T10:28:25.331Z,70.21
2018-01-08T10:30:52.835Z,70.59
2018-01-08T10:33:20.548Z,71.31
2018-01-08T10:35:48.036Z,71.08
2018-01-08T10:38:15.534Z,70.98
2018-01-08T10:40:43.637Z,71.02
2018-01-08T10:43:16.764Z,70.59
2018-01-08T10:45:49.900Z,68.65
2018-01-08T10:48:22.920Z,64.50
2018-01-08T10:50:55.901Z,61.88
2018-01-08T10:53:24.330Z,61.52
2018-01-08T10:55:51.819Z,61.03
2018-01-08T10:58:19.304Z,59.78
2018-01-08T11:00:52.470Z,59.00
2018-01-08T11:03:25.448Z,58.04
2018-01-08T11:05:52.937Z,62.08
2018-01-08T11:08:20.432Z,63.47
2018-01-08T11:10:47.943Z,64.01
2018-01-08T11:13:16.132Z,63.03
2018-01-08T11:15:43.636Z,62.94
2018-01-08T11:18:11.116Z,63.12
2018-01-08T11:20:38.615Z,63.40
2018-01-08T11:23:06.096Z,63.13
2018-01-08T11:25:33.577Z,63.09
2018-01-08T11:28:01.060Z,63.52
2018-01-08T11:30:28.893Z,63.50
2018-01-08T11:32:56.393Z,63.09
2018-01-08T11:35:23.887Z,62.52
2018-01-08T11:37:51.391Z,63.83
2018-01-08T11:40:18.899Z,64.39
2018-01-08T11:42:46.399Z,64.95
2018-01-08T11:45:13.911Z,64.46
2018-01-08T11:47:41.398Z,64.46
2018-01-08T11:50:08.933Z,64.27
2018-01-08T11:52:36.424Z,63.26
2018-01-08T11:55:03.923Z,63.71
2018-01-08T11:57:31.443Z,62.96
2018-01-08T11:59:59.016Z,62.53
2018-01-08T12:02:26.518Z,62.57
2018-01-08T12:04:54.052Z,62.80
2018-01-08T12:07:21.531Z,62.82
2018-01-08T12:09:49.050Z,62.96
2018-01-08T12:12:16.551Z,62.61
2018-01-08T12:14:44.048Z,62.58
2018-01-08T12:17:11.559Z,61.94
2018-01-08T12:19:39.060Z,62.31
2018-01-08T12:22:06.567Z,62.09
2018-01-08T12:24:34.097Z,62.54
2018-01-08T12:27:01.557Z,62.77
2018-01-08T12:29:29.040Z,63.43
2018-01-08T12:31:56.521Z,62.49
2018-01-08T12:34:24.027Z,63.01
2018-01-08T12:36:51.538Z,62.68
2018-01-08T12:39:19.037Z,62.60
2018-01-08T12:41:46.532Z,62.24
2018-01-08T12:44:14.023Z,62.23
2018-01-08T12:46:41.517Z,62.00
2018-01-08T12:49:09.029Z,61.27
2018-01-08T12:51:37.391Z,61.40
2018-01-08T12:54:04.893Z,61.30
2018-01-08T12:56:32.375Z,61.01
2018-01-08T12:58:59.868Z,61.38
2018-01-08T13:01:27.378Z,61.51
2018-01-08T13:03:54.878Z,61.93
2018-01-08T13:06:22.365Z,61.12
2018-01-08T13:08:49.887Z,60.77
2018-01-08T13:11:17.364Z,61.10
2018-01-08T13:13:44.923Z,60.82
2018-01-08T13:16:12.409Z,60.60
2018-01-08T13:18:39.892Z,60.87
2018-01-08T13:21:07.399Z,61.41
2018-01-08T13:23:34.893Z,61.73
2018-01-08T13:26:02.368Z,62.10
2018-01-08T13:28:29.871Z,62.08
2018-01-08T13:30:57.395Z,61.81
2018-01-08T13:33:25.529Z,62.10
2018-01-08T13:35:53.017Z,61.74
2018-01-08T13:38:20.504Z,61.79
2018-01-08T13:40:48.039Z,61.65
2018-01-08T13:43:15.541Z,61.57
2018-01-08T13:45:43.033Z,61.66
2018-01-08T13:48:10.539Z,61.99
2018-01-08T13:50:38.024Z,61.91
2018-01-08T13:53:05.513Z,61.47
2018-01-08T13:55:33.566Z,61.69
2018-01-08T13:58:01.045Z,60.78
2018-01-08T14:00:28.520Z,60.91
2018-01-08T14:02:57.685Z,60.83
2018-01-08T14:05:25.177Z,60.25
2018-01-08T14:07:53.561Z,59.93
2018-01-08T14:10:21.072Z,60.13
2018-01-08T14:12:48.593Z,59.85
2018-01-08T14:15:16.091Z,59.71
2018-01-08T14:17:43.568Z,59.36
2018-01-08T14:20:11.067Z,59.64
2018-01-08T14:22:38.559Z,59.22
2018-01-08T14:25:06.064Z,59.33
2018-01-08T14:27:33.586Z,59.60
2018-01-08T14:30:01.095Z,59.37
2018-01-08T14:32:28.596Z,59.62
2018-01-08T14:34:56.105Z,59.64
2018-01-08T14:37:26.519Z,59.53
2018-01-08T14:39:54.039Z,58.96
2018-01-08T14:42:21.606Z,58.88
2018-01-08T14:44:49.089Z,58.86
2018-01-08T14:47:16.564Z,59.17
2018-01-08T14:49:44.071Z,59.13
2018-01-08T14:52:11.571Z,58.73
2018-01-08T14:54:39.089Z,58.26
2018-01-08T14:57:06.577Z,58.50
2018-01-08T14:59:34.073Z,58.82
2018-01-08T15:02:01.587Z,58.96
2018-01-08T15:04:29.107Z,58.99
2018-01-08T15:06:56.599Z,59.37
2018-01-08T15:09:24.082Z,59.56
2018-01-08T15:11:51.560Z,59.46
2018-01-08T15:14:19.040Z,59.66
2018-01-08T15:16:46.533Z,60.10
2018-01-08T15:19:14.020Z,59.43
2018-01-08T15:21:41.518Z,59.86
2018-01-08T15:24:09.018Z,59.61
2018-01-08T15:26:36.528Z,59.76
2018-01-08T15:29:04.065Z,59.68
2018-01-08T15:31:31.575Z,60.16
2018-01-08T15:33:59.083Z,60.52
2018-01-08T15:36:26.811Z,61.07
2018-01-08T15:38:55.144Z,60.48
2018-01-08T15:41:22.612Z,60.50
2018-01-08T15:43:50.116Z,60.42
2018-01-08T15:46:17.614Z,60.57
2018-01-08T15:48:45.122Z,61.31
2018-01-08T15:51:12.636Z,61.01
2018-01-08T15:53:40.112Z,61.01
2018-01-08T15:56:07.632Z,61.01
2018-01-08T15:58:35.117Z,60.88
2018-01-08T16:01:02.593Z,60.52
2018-01-08T16:03:30.098Z,60.56
2018-01-08T16:05:57.607Z,60.97
2018-01-08T16:08:25.147Z,61.28
2018-01-08T16:10:52.684Z,60.81
2018-01-08T16:13:20.185Z,61.28
2018-01-08T16:15:47.751Z,61.59
2018-01-08T16:18:15.926Z,61.38
2018-01-08T16:20:43.417Z,61.69
2018-01-08T16:23:10.904Z,61.74
2018-01-08T16:25:38.389Z,61.96
2018-01-08T16:28:15.542Z,61.67
2018-01-08T16:30:43.059Z,61.80
2018-01-08T16:33:10.556Z,61.93
2018-01-08T16:35:38.102Z,61.79
2018-01-08T16:38:05.925Z,61.74
2018-01-08T16:40:33.437Z,61.97
2018-01-08T16:43:00.916Z,61.86
2018-01-08T16:45:28.426Z,61.90
2018-01-08T16:47:56.793Z,61.74
2018-01-08T16:50:29.338Z,61.89
2018-01-08T16:52:56.828Z,61.91
2018-01-08T16:55:24.316Z,61.53
2018-01-08T16:57:51.811Z,61.59
2018-01-08T17:00:19.356Z,61.39
2018-01-08T17:02:46.856Z,61.08
2018-01-08T17:05:14.458Z,60.31
2018-01-08T17:07:41.979Z,61.09
2018-01-08T17:10:09.467Z,61.27
2018-01-08T17:12:36.955Z,61.11
2018-01-08T17:15:04.475Z,60.67
2018-01-08T17:17:31.966Z,61.17
2018-01-08T17:19:59.465Z,61.55
2018-01-08T17:22:26.987Z,61.79
2018-01-08T17:24:54.516Z,61.95
2018-01-08T17:27:22.019Z,61.82
2018-01-08T17:29:49.525Z,61.71
2018-01-08T17:32:17.017Z,61.85
2018-01-08T17:34:44.526Z,61.71
2018-01-08T17:37:12.029Z,61.69
2018-01-08T17:39:39.521Z,61.51
2018-01-08T17:42:07.020Z,61.64
2018-01-08T17:44:34.516Z,61.77
2018-01-08T17:47:02.000Z,61.93
2018-01-08T17:49:29.485Z,61.61
2018-01-08T17:51:57.827Z,61.57
2018-01-08T17:54:25.379Z,61.61
2018-01-08T17:56:52.868Z,61.59
2018-01-08T17:59:20.364Z,61.98
2018-01-08T18:01:47.862Z,62.36
2018-01-08T18:04:15.356Z,62.39
2018-01-08T18:06:42.873Z,62.70
2018-01-08T18:09:10.365Z,62.40
2018-01-08T18:11:38.106Z,62.59
2018-01-08T18:14:05.610Z,62.90
2018-01-08T18:16:33.115Z,62.86
2018-01-08T18:19:00.596Z,62.87
2018-01-08T18:21:28.102Z,62.63
2018-01-08T18:23:55.619Z,62.94
2018-01-08T18:26:23.161Z,63.07
2018-01-08T18:28:50.697Z,62.94
2018-01-08T18:31:18.203Z,62.92
2018-01-08T18:33:45.720Z,63.29
2018-01-08T18:36:13.204Z,63.78
2018-01-08T18:38:40.703Z,64.33
2018-01-08T18:41:08.190Z,64.60
2018-01-08T18:43:35.699Z,64.99
2018-01-08T18:46:03.203Z,65.22
2018-01-08T18:48:30.698Z,65.42
2018-01-08T18:50:58.191Z,65.87
2018-01-08T18:53:25.680Z,66.05
2018-01-08T18:55:53.181Z,66.56
2018-01-08T18:58:20.793Z,66.72
2018-01-08T19:00:48.299Z,66.89
2018-01-08T19:03:15.844Z,67.38
2018-01-08T19:05:43.356Z,67.76
2018-01-08T19:08:10.953Z,68.12
2018-01-08T19:10:38.452Z,68.19
2018-01-08T19:13:08.555Z,68.68
2018-01-08T19:15:36.086Z,68.63
2018-01-08T19:18:03.561Z,69.09
2018-01-08T19:20:31.294Z,69.40
2018-01-08T19:22:58.783Z,69.70
2018-01-08T19:25:26.323Z,69.81
2018-01-08T19:27:53.803Z,69.80
2018-01-08T19:30:21.288Z,70.04
2018-01-08T19:32:48.819Z,70.43
2018-01-08T19:35:17.198Z,70.83
2018-01-08T19:37:44.708Z,71.17
2018-01-08T19:40:13.027Z,71.41
2018-01-08T19:42:40.565Z,71.29
2018-01-08T19:45:08.090Z,71.63
2018-01-08T19:47:43.014Z,71.60
2018-01-08T19:50:10.532Z,71.96
2018-01-08T19:52:39.977Z,72.12
2018-01-08T19:55:10.546Z,72.38
2018-01-08T19:57:39.435Z,72.30
2018-01-08T20:00:08.347Z,72.45
2018-01-08T20:02:36.732Z,72.11
2018-01-08T20:05:08.187Z,71.96
2018-01-08T20:07:35.688Z,72.12
2018-01-08T20:10:05.023Z,72.17
2018-01-08T20:12:32.557Z,72.08
2018-01-08T20:15:00.145Z,71.91
2018-01-08T20:17:27.998Z,71.99
2018-01-08T20:19:58.370Z,71.91
2018-01-08T20:22:25.886Z,72.29
2018-01-08T20:24:53.404Z,72.36
2018-01-08T20:27:20.880Z,72.38
2018-01-08T20:29:48.403Z,72.53
2018-01-08T20:32:15.917Z,72.58
2018-01-08T20:34:46.806Z,73.11
2018-01-08T20:37:14.315Z,73.09
2018-01-08T20:39:41.808Z,73.35
2018-01-08T20:42:11.229Z,73.09
2018-01-08T20:44:39.579Z,73.14
2018-01-08T20:47:09.767Z,72.75
2018-01-08T20:49:37.306Z,72.71
2018-01-08T20:52:04.808Z,72.58
2018-01-08T20:54:32.543Z,72.59
2018-01-08T20:57:00.738Z,72.82
2018-01-08T20:59:28.269Z,72.77
2018-01-08T21:01:55.781Z,72.81
2018-01-08T21:04:23.964Z,72.80
2018-01-08T21:06:51.527Z,73.11
2018-01-08T21:09:19.005Z,73.08
2018-01-08T21:11:46.503Z,73.03
2018-01-08T21:14:14.059Z,73.29
2018-01-08T21:16:41.604Z,73.03
2018-01-08T21:19:09.104Z,73.20
2018-01-08T21:21:36.644Z,73.33
2018-01-08T21:24:04.186Z,73.57
2018-01-08T21:26:31.684Z,73.12
2018-01-08T21:28:59.202Z,73.43
2018-01-08T21:31:29.522Z,73.07
2018-01-08T21:33:57.045Z,73.34
2018-01-08T21:36:24.590Z,73.52
2018-01-08T21:38:53.131Z,73.75
2018-01-08T21:41:20.648Z,73.75
2018-01-08T21:43:48.159Z,73.79
2018-01-08T21:46:15.672Z,73.69
2018-01-08T21:48:43.176Z,73.48
2018-01-08T21:51:10.670Z,73.80
2018-01-08T21:53:38.174Z,73.81
2018-01-08T21:56:05.691Z,74.08
2018-01-08T21:58:33.164Z,73.87
2018-01-08T22:01:00.671Z,73.78
2018-01-08T22:03:28.164Z,73.98
2018-01-08T22:05:55.667Z,73.78
2018-01-08T22:08:23.144Z,73.70
2018-01-08T22:10:50.629Z,73.73
2018-01-08T22:13:18.131Z,73.75
2018-01-08T22:15:45.631Z,74.00
2018-01-08T22:18:13.139Z,73.71
2018-01-08T22:20:40.621Z,73.93
2018-01-08T22:23:08.117Z,73.99
2018-01-08T22:25:35.614Z,74.14
2018-01-08T22:28:03.114Z,73.88
2018-01-08T22:30:30.611Z,73.95
2018-01-08T22:32:58.119Z,73.89
2018-01-08T22:35:25.604Z,73.86
2018-01-08T22:37:56.046Z,73.70
2018-01-08T22:40:23.546Z,73.72
2018-01-08T22:42:51.040Z,73.66
2018-01-08T22:45:18.555Z,73.61
2018-01-08T22:47:46.992Z,73.47
2018-01-08T22:50:14.577Z,73.90
2018-01-08T22:52:42.086Z,73.77
2018-01-08T22:55:09.609Z,73.99
2018-01-08T22:57:37.089Z,73.52
2018-01-08T23:00:04.580Z,73.89
2018-01-08T23:02:32.061Z,73.66
2018-01-08T23:04:59.554Z,73.46
2018-01-08T23:07:27.058Z,73.32
2018-01-08T23:09:54.557Z,73.24
2018-01-08T23:12:22.038Z,73.26
2018-01-08T23:14:49.558Z,73.53
2018-01-08T23:17:17.062Z,73.59
2018-01-08T23:19:44.576Z,73.36
2018-01-08T23:22:12.083Z,73.46
2018-01-08T23:24:39.574Z,73.41
2018-01-08T23:27:07.085Z,73.45
2018-01-08T23:29:34.594Z,73.62
2018-01-08T23:32:02.097Z,73.60
2018-01-08T23:34:29.580Z,73.49
2018-01-08T23:36:57.094Z,73.79
2018-01-08T23:39:24.585Z,73.70
2018-01-08T23:41:52.103Z,74.12
2018-01-08T23:44:19.598Z,74.25
2018-01-08T23:46:47.128Z,73.89
2018-01-08T23:49:14.604Z,73.87
2018-01-08T23:51:42.148Z,74.05
2018-01-08T23:54:09.690Z,73.95
2018-01-08T23:56:37.426Z,74.24
2018-01-08T23:59:04.943Z,74.08
